createdAt,value
2023-05-05T00:01:13.473Z,102258.00
2023-05-05T00:03:42.742Z,102252.72
2023-05-05T00:06:10.909Z,102256.97
2023-05-05T00:08:38.893Z,102259.53
2023-05-05T00:11:07.246Z,102261.19
2023-05-05T00:13:36.962Z,102254.78
2023-05-05T00:16:06.037Z,102258.25
2023-05-05T00:18:34.748Z,102259.94
2023-05-05T00:21:02.752Z,102262.69
2023-05-05T00:23:30.899Z,102264.53
2023-05-05T00:25:58.988Z,102268.06
2023-05-05T00:28:27.576Z,102265.56
2023-05-05T00:30:57.005Z,102264.63
2023-05-05T00:33:26.006Z,102274.16
2023-05-05T00:35:54.067Z,102270.53
2023-05-05T00:38:22.139Z,102267.91
2023-05-05T00:40:50.174Z,102268.94
2023-05-05T00:43:18.109Z,102270.59
2023-05-05T00:45:48.036Z,102264.47
2023-05-05T00:48:18.902Z,102263.69
2023-05-05T00:50:47.092Z,102262.84
2023-05-05T00:53:15.297Z,102268.13
2023-05-05T00:55:43.502Z,102264.53
2023-05-05T00:58:13.390Z,102270.69
2023-05-05T01:00:41.826Z,102266.19
2023-05-05T01:03:10.252Z,102268.66
2023-05-05T01:05:47.681Z,102266.97
2023-05-05T01:08:27.215Z,102267.66
2023-05-05T01:11:02.069Z,102274.66
2023-05-05T01:13:37.084Z,102276.13
2023-05-05T01:16:12.826Z,102273.47
2023-05-05T01:18:49.916Z,102278.09
2023-05-05T01:21:27.140Z,102274.94
2023-05-05T01:24:17.803Z,102273.41
2023-05-05T01:27:01.609Z,102278.03
2023-05-05T01:29:42.507Z,102276.56
2023-05-05T01:32:15.345Z,102275.16
2023-05-05T01:34:50.667Z,102285.94
2023-05-05T01:37:23.216Z,102273.81
2023-05-05T01:39:55.721Z,102278.38
2023-05-05T01:42:26.204Z,102281.00
2023-05-05T01:44:55.387Z,102271.53
2023-05-05T01:47:26.572Z,102282.00
2023-05-05T01:49:55.269Z,102277.59
2023-05-05T01:52:24.980Z,102277.56
2023-05-05T01:54:54.313Z,102277.41
2023-05-05T01:57:26.338Z,102283.47
2023-05-05T01:59:56.838Z,102279.78
2023-05-05T02:02:28.637Z,102279.84
2023-05-05T02:04:58.603Z,102279.34
2023-05-05T02:07:28.313Z,102278.75
2023-05-05T02:09:57.721Z,102285.13
2023-05-05T02:12:26.351Z,102272.25
2023-05-05T02:14:55.204Z,102281.16
2023-05-05T02:17:24.319Z,102274.53
2023-05-05T02:19:55.584Z,102276.34
2023-05-05T02:22:23.683Z,102273.09
2023-05-05T02:24:51.918Z,102272.31
2023-05-05T02:27:23.212Z,102283.97
2023-05-05T02:29:55.338Z,102290.22
2023-05-05T02:32:29.240Z,102280.84
2023-05-05T02:35:04.224Z,102279.38
2023-05-05T02:37:34.913Z,102275.09
2023-05-05T02:40:06.507Z,102284.81
2023-05-05T02:42:39.395Z,102282.94
2023-05-05T02:45:13.553Z,102278.47
2023-05-05T02:47:45.686Z,102281.16
2023-05-05T02:50:16.387Z,102287.16
2023-05-05T02:52:53.234Z,102283.66
2023-05-05T02:55:23.713Z,102287.16
2023-05-05T02:58:06.713Z,102274.00
2023-05-05T03:00:48.479Z,102280.91
2023-05-05T03:03:23.381Z,102283.38
2023-05-05T03:06:01.645Z,102277.59
2023-05-05T03:08:38.057Z,102279.50
2023-05-05T03:11:15.863Z,102283.84
2023-05-05T03:13:47.856Z,102287.31
2023-05-05T03:16:20.049Z,102281.25
2023-05-05T03:18:52.024Z,102287.31
2023-05-05T03:21:22.559Z,102283.03
2023-05-05T03:23:51.089Z,102289.97
2023-05-05T03:26:21.991Z,102287.50
2023-05-05T03:28:50.190Z,102283.22
2023-05-05T03:31:31.480Z,102295.63
2023-05-05T03:34:01.954Z,102292.19
2023-05-05T03:36:36.911Z,102300.06
2023-05-05T03:39:05.297Z,102298.72
2023-05-05T03:41:35.329Z,102297.31
2023-05-05T03:44:04.585Z,102293.22
2023-05-05T03:46:33.027Z,102302.44
2023-05-05T03:49:00.987Z,102297.56
2023-05-05T03:51:29.584Z,102309.09
2023-05-05T03:54:00.330Z,102310.66
2023-05-05T03:56:28.584Z,102313.97
2023-05-05T03:58:56.590Z,102316.50
2023-05-05T04:01:25.336Z,102316.09
2023-05-05T04:03:53.751Z,102314.56
2023-05-05T04:06:21.842Z,102316.41
2023-05-05T04:08:50.009Z,102325.41
2023-05-05T04:11:19.467Z,102326.19
2023-05-05T04:13:48.566Z,102321.25
2023-05-05T04:16:17.027Z,102327.63
2023-05-05T04:18:45.365Z,102326.00
2023-05-05T04:21:13.387Z,102334.81
2023-05-05T04:23:41.904Z,102333.97
2023-05-05T04:26:09.883Z,102330.94
2023-05-05T04:28:39.415Z,102332.28
2023-05-05T04:31:08.098Z,102335.41
2023-05-05T04:33:39.394Z,102334.97
2023-05-05T04:36:08.199Z,102332.72
2023-05-05T04:38:36.769Z,102348.22
2023-05-05T04:41:07.274Z,102338.59
2023-05-05T04:43:36.584Z,102345.72
2023-05-05T04:46:06.427Z,102336.97
2023-05-05T04:48:37.983Z,102340.97
2023-05-05T04:51:07.086Z,102345.41
2023-05-05T04:53:36.073Z,102345.16
2023-05-05T04:56:04.201Z,102341.84
2023-05-05T04:58:32.284Z,102345.72
2023-05-05T05:01:00.489Z,102353.47
2023-05-05T05:03:31.991Z,102343.66
2023-05-05T05:06:00.336Z,102360.75
2023-05-05T05:08:28.334Z,102355.53
2023-05-05T05:10:57.176Z,102372.16
2023-05-05T05:13:25.676Z,102369.13
2023-05-05T05:15:53.821Z,102382.53
2023-05-05T05:18:21.887Z,102382.75
2023-05-05T05:20:52.730Z,102388.53
2023-05-05T05:23:21.141Z,102398.19
2023-05-05T05:25:49.308Z,102399.81
2023-05-05T05:28:19.709Z,102400.25
2023-05-05T05:30:53.177Z,102407.94
2023-05-05T05:33:21.480Z,102410.25
2023-05-05T05:35:50.367Z,102418.00
2023-05-05T05:38:22.243Z,102412.69
2023-05-05T05:40:54.525Z,102419.56
2023-05-05T05:43:23.054Z,102422.47
2023-05-05T05:45:52.030Z,102427.34
2023-05-05T05:48:22.202Z,102425.47
2023-05-05T05:50:50.512Z,102432.44
2023-05-05T05:53:19.013Z,102426.41
2023-05-05T05:55:48.631Z,102423.50
2023-05-05T05:58:19.578Z,102429.91
2023-05-05T06:00:49.240Z,102439.84
2023-05-05T06:03:18.353Z,102440.00
2023-05-05T06:05:47.157Z,102443.34
2023-05-05T06:08:16.311Z,102442.53
2023-05-05T06:10:50.432Z,102450.53
2023-05-05T06:13:21.476Z,102451.53
2023-05-05T06:15:52.046Z,102453.75
2023-05-05T06:18:21.204Z,102461.19
2023-05-05T06:20:50.826Z,102453.00
2023-05-05T06:23:20.035Z,102459.72
2023-05-05T06:25:55.695Z,102457.88
2023-05-05T06:28:23.802Z,102462.19
2023-05-05T06:30:51.892Z,102466.59
2023-05-05T06:33:20.205Z,102465.69
2023-05-05T06:35:49.572Z,102464.75
2023-05-05T06:38:17.671Z,102472.88
2023-05-05T06:40:45.679Z,102471.28
2023-05-05T06:43:15.238Z,102479.34
2023-05-05T06:45:48.824Z,102466.56
2023-05-05T06:48:16.935Z,102472.03
2023-05-05T06:50:44.953Z,102468.47
2023-05-05T06:53:12.974Z,102474.72
2023-05-05T06:55:44.016Z,102479.25
2023-05-05T06:58:12.248Z,102465.88
2023-05-05T07:00:42.222Z,102463.31
2023-05-05T07:03:10.441Z,102458.28
2023-05-05T07:05:38.595Z,102466.22
2023-05-05T07:08:09.097Z,102465.22
2023-05-05T07:10:37.171Z,102462.59
2023-05-05T07:13:05.357Z,102467.09
2023-05-05T07:15:33.558Z,102465.09
2023-05-05T07:18:03.021Z,102476.03
2023-05-05T07:20:31.081Z,102462.31
2023-05-05T07:22:59.147Z,102459.56
2023-05-05T07:25:27.143Z,102476.16
2023-05-05T07:27:55.586Z,102470.91
2023-05-05T07:30:25.001Z,102470.91
2023-05-05T07:32:55.022Z,102473.63
2023-05-05T07:35:24.816Z,102472.88
2023-05-05T07:37:53.057Z,102454.78
2023-05-05T07:40:21.011Z,102472.50
2023-05-05T07:42:49.209Z,102463.00
2023-05-05T07:45:17.312Z,102471.81
2023-05-05T07:47:45.407Z,102474.28
2023-05-05T07:50:13.604Z,102474.69
2023-05-05T07:52:49.981Z,102474.50
2023-05-05T07:55:24.414Z,102466.69
2023-05-05T07:57:52.434Z,102472.16
2023-05-05T08:00:21.720Z,102473.03
2023-05-05T08:02:50.047Z,102483.06
2023-05-05T08:05:18.381Z,102479.81
2023-05-05T08:07:47.916Z,102474.66
2023-05-05T08:10:15.950Z,102473.81
2023-05-05T08:12:44.031Z,102472.16
2023-05-05T08:15:12.607Z,102475.94
2023-05-05T08:17:48.120Z,102482.47
2023-05-05T08:20:16.664Z,102480.72
2023-05-05T08:22:45.118Z,102485.00
2023-05-05T08:25:15.284Z,102488.91
2023-05-05T08:27:44.337Z,102483.53
2023-05-05T08:30:13.278Z,102490.56
2023-05-05T08:32:41.449Z,102504.72
2023-05-05T08:35:10.541Z,102500.22
2023-05-05T08:37:39.018Z,102501.78
2023-05-05T08:40:08.544Z,102497.34
2023-05-05T08:42:39.507Z,102499.97
2023-05-05T08:45:10.934Z,102507.09
2023-05-05T08:47:40.251Z,102495.66
2023-05-05T08:50:11.269Z,102499.28
2023-05-05T08:52:43.952Z,102487.84
2023-05-05T08:55:16.954Z,102500.28
2023-05-05T08:57:51.872Z,102499.47
2023-05-05T09:00:21.247Z,102495.06
2023-05-05T09:02:49.791Z,102502.13
2023-05-05T09:05:18.628Z,102496.81
2023-05-05T09:07:47.506Z,102504.84
2023-05-05T09:10:15.937Z,102504.84
2023-05-05T09:12:44.460Z,102511.06
2023-05-05T09:15:15.640Z,102509.31
2023-05-05T09:17:44.146Z,102518.09
2023-05-05T09:20:13.541Z,102518.16
2023-05-05T09:22:43.000Z,102517.28
2023-05-05T09:25:12.528Z,102519.94
2023-05-05T09:27:42.220Z,102519.06
2023-05-05T09:30:12.397Z,102529.25
2023-05-05T09:32:50.133Z,102524.44
2023-05-05T09:35:19.779Z,102525.31
2023-05-05T09:37:48.379Z,102522.22
2023-05-05T09:40:18.299Z,102523.66
2023-05-05T09:42:48.417Z,102521.94
2023-05-05T09:45:28.060Z,102529.41
2023-05-05T09:48:00.286Z,102537.06
2023-05-05T09:50:30.864Z,102539.00
2023-05-05T09:53:00.970Z,102546.66
2023-05-05T09:55:31.153Z,102553.56
2023-05-05T09:58:17.810Z,102551.63
2023-05-05T10:00:46.609Z,102551.50
2023-05-05T10:03:16.140Z,102553.00
2023-05-05T10:05:52.020Z,102546.25
2023-05-05T10:08:21.959Z,102550.00
2023-05-05T10:10:54.300Z,102546.69
2023-05-05T10:13:24.203Z,102557.16
2023-05-05T10:15:55.354Z,102555.44
2023-05-05T10:18:27.071Z,102541.66
2023-05-05T10:20:59.144Z,102548.63
2023-05-05T10:23:35.956Z,102549.66
2023-05-05T10:26:06.932Z,102543.59
2023-05-05T10:28:38.389Z,102546.59
2023-05-05T10:31:24.182Z,102542.94
2023-05-05T10:34:01.557Z,102546.34
2023-05-05T10:36:31.795Z,102558.41
2023-05-05T10:39:02.373Z,102545.38
2023-05-05T10:41:31.895Z,102552.13
2023-05-05T10:44:02.874Z,102544.41
2023-05-05T10:46:32.953Z,102543.16
2023-05-05T10:49:13.195Z,102544.38
2023-05-05T10:51:48.306Z,102560.75
2023-05-05T10:54:24.305Z,102557.19
2023-05-05T10:56:52.997Z,102570.03
2023-05-05T10:59:43.919Z,102568.75
2023-05-05T11:02:26.771Z,102569.69
2023-05-05T11:05:17.677Z,102579.09
2023-05-05T11:07:47.175Z,102583.75
2023-05-05T11:10:16.560Z,102584.97
2023-05-05T11:13:18.981Z,102586.69
2023-05-05T11:15:47.315Z,102587.66
2023-05-05T11:18:37.625Z,102585.66
2023-05-05T11:21:16.658Z,102593.72
2023-05-05T11:23:47.179Z,102597.28
2023-05-05T11:26:17.608Z,102595.69
2023-05-05T11:29:00.201Z,102593.34
2023-05-05T11:31:28.957Z,102594.31
2023-05-05T11:34:25.559Z,102592.75
2023-05-05T11:36:58.629Z,102601.00
2023-05-05T11:39:44.292Z,102593.31
2023-05-05T11:42:26.568Z,102593.59
2023-05-05T11:44:55.445Z,102583.19
2023-05-05T11:47:31.671Z,102581.69
2023-05-05T11:50:00.406Z,102585.38
2023-05-05T11:52:29.795Z,102588.16
2023-05-05T11:55:02.473Z,102580.34
2023-05-05T11:57:31.944Z,102576.03
2023-05-05T12:00:01.810Z,102578.81
2023-05-05T12:02:33.003Z,102585.22
2023-05-05T12:05:01.875Z,102580.06
2023-05-05T12:07:34.207Z,102573.97
2023-05-05T12:10:02.563Z,102578.44
2023-05-05T12:12:36.314Z,102574.75
2023-05-05T12:15:06.533Z,102579.06
2023-05-05T12:17:40.723Z,102586.00
2023-05-05T12:20:11.469Z,102586.78
2023-05-05T12:22:41.444Z,102578.69
2023-05-05T12:25:10.378Z,102584.38
2023-05-05T12:27:38.855Z,102589.38
2023-05-05T12:30:16.126Z,102596.16
2023-05-05T12:32:46.427Z,102599.63
2023-05-05T12:35:16.082Z,102607.47
2023-05-05T12:37:45.848Z,102605.09
2023-05-05T12:40:48.481Z,102609.97
2023-05-05T12:43:30.395Z,102621.47
2023-05-05T12:46:04.323Z,102612.50
2023-05-05T12:48:32.830Z,102611.56
2023-05-05T12:51:18.215Z,102610.41
2023-05-05T12:53:48.844Z,102601.78
2023-05-05T12:56:37.548Z,102597.75
2023-05-05T12:59:07.795Z,102604.00
2023-05-05T13:01:36.573Z,102595.56
2023-05-05T13:04:10.783Z,102597.66
2023-05-05T13:06:39.981Z,102594.44
2023-05-05T13:09:11.013Z,102584.13
2023-05-05T13:11:39.824Z,102593.75
2023-05-05T13:14:08.314Z,102584.25
2023-05-05T13:16:36.466Z,102585.91
2023-05-05T13:19:04.696Z,102584.25
2023-05-05T13:21:32.922Z,102582.63
2023-05-05T13:24:12.480Z,102585.34
2023-05-05T13:26:50.698Z,102581.81
2023-05-05T13:29:19.692Z,102595.00
2023-05-05T13:31:47.827Z,102594.16
2023-05-05T13:34:16.004Z,102594.28
2023-05-05T13:36:43.973Z,102586.38
2023-05-05T13:39:12.635Z,102589.88
2023-05-05T13:41:40.951Z,102589.81
2023-05-05T13:44:10.495Z,102592.38
2023-05-05T13:46:38.944Z,102600.13
2023-05-05T13:49:07.029Z,102613.97
2023-05-05T13:51:36.415Z,102626.94
2023-05-05T13:54:05.020Z,102632.94
2023-05-05T13:56:33.589Z,102622.28
2023-05-05T13:59:02.473Z,102620.59
2023-05-05T14:01:32.771Z,102626.72
2023-05-05T14:04:03.543Z,102623.22
2023-05-05T14:06:33.667Z,102613.69
2023-05-05T14:09:01.990Z,102621.66
2023-05-05T14:11:31.566Z,102624.28
2023-05-05T14:13:59.573Z,102623.41
2023-05-05T14:16:27.669Z,102622.53
2023-05-05T14:18:57.048Z,102624.31
2023-05-05T14:21:25.219Z,102626.78
2023-05-05T14:23:53.257Z,102631.06
2023-05-05T14:26:21.460Z,102630.00
2023-05-05T14:28:50.374Z,102638.78
2023-05-05T14:31:18.580Z,102628.13
2023-05-05T14:33:46.608Z,102620.38
2023-05-05T14:36:16.138Z,102622.16
2023-05-05T14:38:44.453Z,102614.47
2023-05-05T14:41:12.518Z,102620.78
2023-05-05T14:43:41.385Z,102614.75
2023-05-05T14:46:09.423Z,102614.00
2023-05-05T14:48:38.094Z,102612.31
2023-05-05T14:51:06.708Z,102608.00
2023-05-05T14:53:36.860Z,102612.38
2023-05-05T14:56:04.943Z,102614.06
2023-05-05T14:58:33.101Z,102615.75
2023-05-05T15:01:01.525Z,102613.97
2023-05-05T15:03:29.763Z,102609.50
2023-05-05T15:05:57.944Z,102616.53
2023-05-05T15:08:25.982Z,102621.84
2023-05-05T15:10:55.562Z,102614.78
2023-05-05T15:13:23.685Z,102618.41
2023-05-05T15:15:51.799Z,102617.47
2023-05-05T15:18:20.114Z,102614.84
2023-05-05T15:20:48.103Z,102611.31
2023-05-05T15:23:16.198Z,102621.81
2023-05-05T15:25:44.331Z,102628.75
2023-05-05T15:28:13.765Z,102613.69
2023-05-05T15:30:41.901Z,102623.09
2023-05-05T15:33:10.035Z,102622.19
2023-05-05T15:35:38.386Z,102623.88
2023-05-05T15:38:07.692Z,102617.44
2023-05-05T15:40:35.780Z,102616.34
2023-05-05T15:43:03.831Z,102617.88
2023-05-05T15:45:34.532Z,102618.78
2023-05-05T15:48:02.652Z,102618.03
2023-05-05T15:50:31.034Z,102619.03
2023-05-05T15:52:59.438Z,102619.72
2023-05-05T15:55:28.154Z,102624.13
2023-05-05T15:57:56.156Z,102623.31
2023-05-05T16:00:24.249Z,102621.59
2023-05-05T16:02:53.658Z,102618.94
2023-05-05T16:05:23.088Z,102619.81
2023-05-05T16:07:52.584Z,102625.09
2023-05-05T16:10:20.747Z,102626.66
2023-05-05T16:12:48.812Z,102625.75
2023-05-05T16:15:16.956Z,102623.16
2023-05-05T16:17:45.332Z,102627.50
2023-05-05T16:20:15.033Z,102621.09
2023-05-05T16:22:43.603Z,102629.03
2023-05-05T16:25:11.827Z,102622.88
2023-05-05T16:27:40.115Z,102620.22
2023-05-05T16:30:10.266Z,102621.19
2023-05-05T16:32:39.585Z,102622.19
2023-05-05T16:35:09.285Z,102630.22
2023-05-05T16:37:38.945Z,102622.19
2023-05-05T16:40:08.335Z,102616.81
2023-05-05T16:42:36.354Z,102621.81
2023-05-05T16:45:04.619Z,102620.84
2023-05-05T16:47:32.728Z,102622.59
2023-05-05T16:50:00.788Z,102628.69
2023-05-05T16:52:29.333Z,102620.75
2023-05-05T16:54:58.943Z,102631.31
2023-05-05T16:57:27.095Z,102626.97
2023-05-05T16:59:56.864Z,102627.72
2023-05-05T17:02:25.085Z,102631.97
2023-05-05T17:04:53.201Z,102632.66
2023-05-05T17:07:22.415Z,102629.00
2023-05-05T17:09:51.107Z,102629.69
2023-05-05T17:12:20.561Z,102635.31
2023-05-05T17:14:48.702Z,102637.00
2023-05-05T17:17:16.948Z,102638.66
2023-05-05T17:19:45.465Z,102635.09
2023-05-05T17:22:13.488Z,102633.22
2023-05-05T17:24:41.553Z,102634.09
2023-05-05T17:27:09.689Z,102639.31
2023-05-05T17:29:40.921Z,102637.50
2023-05-05T17:32:09.386Z,102629.50
2023-05-05T17:34:37.589Z,102649.59
2023-05-05T17:37:05.559Z,102650.56
2023-05-05T17:39:33.910Z,102648.88
2023-05-05T17:42:02.116Z,102649.66
2023-05-05T17:44:31.465Z,102648.69
2023-05-05T17:47:02.807Z,102642.34
2023-05-05T17:49:30.989Z,102653.72
2023-05-05T17:51:58.989Z,102646.63
2023-05-05T17:54:27.310Z,102661.38
2023-05-05T17:56:55.452Z,102655.97
2023-05-05T17:59:23.534Z,102658.53
2023-05-05T18:01:51.668Z,102656.81
2023-05-05T18:04:21.067Z,102659.38
2023-05-05T18:06:49.137Z,102663.66
2023-05-05T18:09:17.671Z,102664.50
2023-05-05T18:11:45.919Z,102667.72
2023-05-05T18:14:13.914Z,102666.72
2023-05-05T18:16:43.842Z,102664.03
2023-05-05T18:19:11.988Z,102671.81
2023-05-05T18:21:41.737Z,102663.09
2023-05-05T18:24:19.473Z,102665.78
2023-05-05T18:26:50.017Z,102671.78
2023-05-05T18:29:18.282Z,102669.09
2023-05-05T18:31:48.426Z,102669.19
2023-05-05T18:34:17.714Z,102662.25
2023-05-05T18:36:47.815Z,102669.31
2023-05-05T18:39:16.462Z,102663.19
2023-05-05T18:41:44.523Z,102665.84
2023-05-05T18:44:12.674Z,102667.63
2023-05-05T18:46:43.089Z,102664.25
2023-05-05T18:49:11.262Z,102670.41
2023-05-05T18:51:39.298Z,102665.19
2023-05-05T18:54:08.813Z,102664.16
2023-05-05T18:56:36.924Z,102654.44
2023-05-05T18:59:05.763Z,102664.13
2023-05-05T19:01:33.849Z,102673.72
2023-05-05T19:04:01.948Z,102669.25
2023-05-05T19:06:30.010Z,102663.91
2023-05-05T19:08:58.159Z,102663.03
2023-05-05T19:11:27.644Z,102666.56
2023-05-05T19:13:55.590Z,102676.19
2023-05-05T19:16:23.798Z,102677.00
2023-05-05T19:18:54.291Z,102668.19
2023-05-05T19:21:22.417Z,102673.50
2023-05-05T19:23:50.603Z,102680.50
2023-05-05T19:26:18.662Z,102679.47
2023-05-05T19:28:48.149Z,102686.28
2023-05-05T19:31:16.433Z,102686.34
2023-05-05T19:33:45.625Z,102682.06
2023-05-05T19:36:14.035Z,102689.00
2023-05-05T19:38:44.574Z,102685.44
2023-05-05T19:41:13.837Z,102684.44
2023-05-05T19:43:42.079Z,102687.00
2023-05-05T19:46:11.482Z,102691.25
2023-05-05T19:48:40.415Z,102693.84
2023-05-05T19:51:08.394Z,102688.47
2023-05-05T19:53:36.473Z,102698.03
2023-05-05T19:56:04.930Z,102693.50
2023-05-05T19:58:52.942Z,102699.50
2023-05-05T20:01:22.830Z,102688.97
2023-05-05T20:03:51.079Z,102692.50
2023-05-05T20:06:19.271Z,102683.66
2023-05-05T20:08:47.598Z,102686.25
2023-05-05T20:11:17.012Z,102690.69
2023-05-05T20:13:45.347Z,102687.13
2023-05-05T20:16:14.816Z,102687.19
2023-05-05T20:18:44.373Z,102685.28
2023-05-05T20:21:12.676Z,102683.56
2023-05-05T20:23:42.777Z,102690.69
2023-05-05T20:26:11.365Z,102688.75
2023-05-05T20:28:40.407Z,102684.22
2023-05-05T20:31:10.896Z,102684.28
2023-05-05T20:33:38.936Z,102685.94
2023-05-05T20:36:08.613Z,102691.94
2023-05-05T20:38:37.444Z,102693.66
2023-05-05T20:41:06.191Z,102687.34
2023-05-05T20:43:35.277Z,102690.50
2023-05-05T20:46:03.818Z,102692.34
2023-05-05T20:48:32.390Z,102694.13
2023-05-05T20:51:03.850Z,102690.63
2023-05-05T20:53:33.630Z,102693.06
2023-05-05T20:56:02.368Z,102700.06
2023-05-05T20:58:31.018Z,102699.09
2023-05-05T21:00:59.300Z,102699.03
2023-05-05T21:03:27.455Z,102705.91
2023-05-05T21:05:55.646Z,102699.75
2023-05-05T21:08:23.719Z,102696.25
2023-05-05T21:10:53.249Z,102704.69
2023-05-05T21:13:21.536Z,102700.34
2023-05-05T21:15:51.282Z,102699.50
2023-05-05T21:18:19.236Z,102698.56
2023-05-05T21:20:47.200Z,102691.44
2023-05-05T21:23:15.310Z,102693.94
2023-05-05T21:25:43.315Z,102693.06
2023-05-05T21:28:12.736Z,102694.03
2023-05-05T21:30:40.828Z,102695.00
2023-05-05T21:33:08.815Z,102695.00
2023-05-05T21:35:36.974Z,102691.31
2023-05-05T21:38:05.226Z,102689.56
2023-05-05T21:40:33.208Z,102687.09
2023-05-05T21:43:01.166Z,102690.69
2023-05-05T21:45:30.526Z,102688.06
2023-05-05T21:47:58.608Z,102697.72
2023-05-05T21:50:28.847Z,102692.41
2023-05-05T21:52:57.696Z,102700.22
2023-05-05T21:55:25.705Z,102694.06
2023-05-05T21:57:53.687Z,102693.19
2023-05-05T22:00:21.801Z,102693.94
2023-05-05T22:02:51.293Z,102692.00
2023-05-05T22:05:20.537Z,102688.41
2023-05-05T22:07:48.550Z,102696.13
2023-05-05T22:10:16.613Z,102696.84
2023-05-05T22:12:44.653Z,102698.56
2023-05-05T22:15:12.852Z,102697.63
2023-05-05T22:17:40.933Z,102694.09
2023-05-05T22:20:11.719Z,102694.03
2023-05-05T22:22:39.846Z,102693.91
2023-05-05T22:25:08.586Z,102695.63
2023-05-05T22:27:36.812Z,102685.97
2023-05-05T22:30:05.608Z,102684.13
2023-05-05T22:32:33.776Z,102688.53
2023-05-05T22:35:02.569Z,102688.53
2023-05-05T22:37:32.618Z,102693.66
2023-05-05T22:40:00.796Z,102679.63
2023-05-05T22:42:29.666Z,102686.50
2023-05-05T22:44:57.771Z,102681.19
2023-05-05T22:47:25.944Z,102677.66
2023-05-05T22:49:54.336Z,102678.53
2023-05-05T22:52:22.406Z,102682.97
2023-05-05T22:54:51.853Z,102681.34
2023-05-05T22:57:19.914Z,102683.16
2023-05-05T22:59:47.968Z,102684.91
2023-05-05T23:02:16.058Z,102681.56
2023-05-05T23:04:44.612Z,102676.34
2023-05-05T23:07:13.379Z,102687.78
2023-05-05T23:09:41.766Z,102679.91
2023-05-05T23:12:11.100Z,102683.28
2023-05-05T23:14:39.638Z,102677.19
2023-05-05T23:17:08.406Z,102677.28
2023-05-05T23:19:36.825Z,102681.50
2023-05-05T23:22:05.552Z,102684.13
2023-05-05T23:24:33.682Z,102680.41
2023-05-05T23:27:03.054Z,102681.38
2023-05-05T23:29:32.682Z,102682.06
2023-05-05T23:32:00.675Z,102678.56
2023-05-05T23:34:28.701Z,102682.25
2023-05-05T23:36:57.216Z,102683.09
2023-05-05T23:39:25.463Z,102678.81
2023-05-05T23:41:53.427Z,102678.81
2023-05-05T23:44:22.408Z,102679.78
2023-05-05T23:46:51.736Z,102678.03
2023-05-05T23:49:19.685Z,102677.97
2023-05-05T23:51:47.711Z,102679.78
2023-05-05T23:54:15.698Z,102679.06
2023-05-05T23:56:43.743Z,102679.91
2023-05-05T23:59:11.794Z,102684.38
